createdAt,value
2017-06-03T00:01:40.676Z,12.67
2017-06-03T00:04:08.171Z,12.60
2017-06-03T00:06:35.672Z,14.57
2017-06-03T00:09:03.159Z,15.00
2017-06-03T00:11:30.709Z,13.43
2017-06-03T00:13:58.187Z,13.33
2017-06-03T00:16:25.691Z,14.67
2017-06-03T00:18:53.938Z,14.37
2017-06-03T00:21:21.446Z,13.27
2017-06-03T00:23:48.931Z,12.40
2017-06-03T00:26:16.422Z,12.30
2017-06-03T00:28:44.672Z,13.17
2017-06-03T00:31:12.209Z,13.63
2017-06-03T00:33:39.689Z,14.17
2017-06-03T00:36:07.172Z,11.87
2017-06-03T00:38:34.678Z,12.40
2017-06-03T00:41:02.161Z,12.77
2017-06-03T00:43:29.660Z,13.07
2017-06-03T00:45:57.149Z,12.40
2017-06-03T00:48:24.647Z,13.27
2017-06-03T00:50:52.131Z,11.23
2017-06-03T00:53:19.636Z,12.27
2017-06-03T00:55:47.892Z,12.87
2017-06-03T00:58:15.390Z,12.67
2017-06-03T01:00:42.870Z,12.67
2017-06-03T01:03:10.351Z,13.90
2017-06-03T01:05:37.854Z,16.57
2017-06-03T01:08:05.334Z,15.43
2017-06-03T01:10:32.835Z,17.33
2017-06-03T01:13:00.314Z,16.57
2017-06-03T01:15:27.824Z,16.90
2017-06-03T01:17:55.310Z,16.27
2017-06-03T01:20:23.579Z,17.70
2017-06-03T01:22:51.829Z,16.83
2017-06-03T01:25:19.334Z,16.23
2017-06-03T01:27:46.827Z,18.33
2017-06-03T01:30:14.306Z,17.57
2017-06-03T01:32:41.803Z,19.83
2017-06-03T01:35:09.289Z,18.40
2017-06-03T01:37:36.786Z,18.70
2017-06-03T01:40:04.271Z,18.57
2017-06-03T01:42:31.772Z,16.73
2017-06-03T01:44:59.259Z,19.17
2017-06-03T01:47:26.757Z,16.83
2017-06-03T01:49:54.239Z,17.33
2017-06-03T01:52:21.739Z,16.67
2017-06-03T01:54:49.227Z,14.50
2017-06-03T01:57:16.743Z,17.13
2017-06-03T01:59:44.219Z,17.23
2017-06-03T02:02:11.698Z,16.60
2017-06-03T02:04:39.206Z,16.60
2017-06-03T02:07:06.690Z,16.17
2017-06-03T02:09:34.184Z,16.40
2017-06-03T02:12:01.659Z,17.17
2017-06-03T02:14:29.164Z,17.00
2017-06-03T02:16:56.651Z,16.67
2017-06-03T02:19:24.918Z,16.67
2017-06-03T02:21:53.179Z,15.77
2017-06-03T02:24:20.678Z,18.10
2017-06-03T02:26:48.154Z,20.60
2017-06-03T02:29:15.670Z,20.37
2017-06-03T02:31:43.915Z,20.07
2017-06-03T02:34:11.397Z,20.27
2017-06-03T02:36:39.663Z,21.40
2017-06-03T02:39:07.910Z,18.63
2017-06-03T02:41:35.418Z,18.60
2017-06-03T02:44:02.898Z,19.73
2017-06-03T02:46:30.399Z,20.53
2017-06-03T02:48:57.887Z,22.47
2017-06-03T02:51:25.388Z,19.50
2017-06-03T02:53:52.870Z,20.30
2017-06-03T02:56:21.130Z,19.27
2017-06-03T02:58:49.379Z,19.70
2017-06-03T03:01:16.883Z,22.33
2017-06-03T03:03:44.390Z,21.40
2017-06-03T03:06:11.901Z,22.23
2017-06-03T03:08:39.403Z,22.07
2017-06-03T03:11:06.890Z,22.23
2017-06-03T03:13:35.156Z,20.67
2017-06-03T03:16:03.410Z,20.53
2017-06-03T03:18:30.906Z,20.30
2017-06-03T03:20:58.390Z,20.47
2017-06-03T03:23:25.889Z,21.33
2017-06-03T03:25:54.142Z,19.47
2017-06-03T03:28:21.663Z,21.00
2017-06-03T03:30:49.144Z,19.20
2017-06-03T03:33:16.630Z,19.70
2017-06-03T03:35:44.897Z,21.60
2017-06-03T03:38:13.154Z,19.10
2017-06-03T03:40:40.663Z,17.90
2017-06-03T03:43:08.147Z,18.50
2017-06-03T03:45:35.652Z,17.73
2017-06-03T03:48:03.139Z,17.67
2017-06-03T03:50:30.640Z,17.67
2017-06-03T03:52:58.901Z,20.77
2017-06-03T03:55:26.418Z,21.97
2017-06-03T03:57:53.900Z,20.20
2017-06-03T04:00:21.379Z,19.63
2017-06-03T04:02:49.647Z,21.43
2017-06-03T04:05:17.912Z,22.33
2017-06-03T04:07:45.416Z,21.93
2017-06-03T04:10:12.901Z,19.40
2017-06-03T04:12:40.402Z,21.33
2017-06-03T04:15:07.885Z,18.43
2017-06-03T04:17:35.391Z,19.90
2017-06-03T04:20:02.871Z,19.90
2017-06-03T04:22:31.147Z,20.17
2017-06-03T04:24:58.626Z,21.20
2017-06-03T04:27:26.115Z,21.10
2017-06-03T04:29:53.621Z,20.00
2017-06-03T04:32:21.098Z,19.73
2017-06-03T04:34:48.601Z,17.93
2017-06-03T04:37:16.084Z,19.13
2017-06-03T04:39:43.579Z,20.43
2017-06-03T04:42:11.058Z,20.63
2017-06-03T04:44:38.559Z,21.40
2017-06-03T04:47:06.043Z,21.83
2017-06-03T04:49:33.549Z,20.67
2017-06-03T04:52:01.034Z,21.50
2017-06-03T04:54:28.559Z,21.27
2017-06-03T04:56:56.049Z,22.57
2017-06-03T04:59:23.534Z,22.73
2017-06-03T05:01:51.040Z,23.40
2017-06-03T05:04:18.538Z,21.77
2017-06-03T05:06:46.035Z,23.50
2017-06-03T05:09:13.533Z,25.13
2017-06-03T05:11:41.034Z,24.70
2017-06-03T05:14:09.287Z,23.50
2017-06-03T05:16:36.787Z,23.27
2017-06-03T05:19:04.268Z,24.10
2017-06-03T05:21:32.139Z,23.90
2017-06-03T05:23:59.618Z,23.57
2017-06-03T05:26:27.139Z,21.50
2017-06-03T05:28:54.619Z,23.00
2017-06-03T05:31:22.108Z,22.80
2017-06-03T05:33:49.610Z,23.97
2017-06-03T05:36:17.097Z,24.73
2017-06-03T05:38:45.363Z,24.97
2017-06-03T05:41:12.835Z,24.30
2017-06-03T05:43:41.103Z,25.10
2017-06-03T05:46:09.352Z,22.40
2017-06-03T05:48:36.850Z,20.27
2017-06-03T05:51:04.333Z,23.90
2017-06-03T05:53:31.813Z,23.40
2017-06-03T05:55:59.356Z,23.93
2017-06-03T05:58:26.843Z,23.30
2017-06-03T06:00:55.118Z,22.90
2017-06-03T06:03:23.362Z,23.60
2017-06-03T06:05:50.861Z,25.23
2017-06-03T06:08:18.350Z,22.53
2017-06-03T06:10:45.853Z,19.87
2017-06-03T06:13:14.102Z,22.50
2017-06-03T06:15:41.598Z,20.03
2017-06-03T06:18:09.843Z,20.67
2017-06-03T06:20:37.338Z,21.87
2017-06-03T06:23:04.826Z,20.37
2017-06-03T06:25:32.322Z,19.70
2017-06-03T06:28:00.565Z,19.37
2017-06-03T06:30:28.043Z,17.63
2017-06-03T06:32:56.318Z,20.07
2017-06-03T06:35:23.799Z,19.13
2017-06-03T06:37:51.302Z,19.67
2017-06-03T06:40:18.783Z,18.83
2017-06-03T06:42:46.279Z,19.27
2017-06-03T06:45:13.771Z,19.47
2017-06-03T06:47:41.267Z,18.90
2017-06-03T06:50:08.746Z,20.07
2017-06-03T06:52:36.263Z,19.30
2017-06-03T06:55:04.511Z,20.57
2017-06-03T06:57:31.995Z,19.10
2017-06-03T07:00:00.255Z,19.97
2017-06-03T07:02:28.546Z,19.27
2017-06-03T07:04:56.043Z,19.97
2017-06-03T07:07:23.529Z,18.23
2017-06-03T07:09:51.023Z,18.40
2017-06-03T07:12:18.511Z,18.17
2017-06-03T07:14:46.006Z,17.33
2017-06-03T07:17:14.252Z,20.10
2017-06-03T07:19:41.756Z,18.90
2017-06-03T07:22:09.238Z,18.10
2017-06-03T07:24:36.738Z,20.00
2017-06-03T07:27:04.990Z,18.17
2017-06-03T07:29:32.482Z,17.83
2017-06-03T07:31:59.963Z,18.20
2017-06-03T07:34:27.460Z,19.40
2017-06-03T07:36:54.943Z,20.60
2017-06-03T07:39:22.434Z,19.63
2017-06-03T07:41:49.916Z,20.27
2017-06-03T07:44:17.442Z,20.97
2017-06-03T07:46:44.931Z,20.07
2017-06-03T07:49:12.415Z,19.17
2017-06-03T07:51:40.675Z,19.43
2017-06-03T07:54:08.923Z,23.10
2017-06-03T07:56:36.430Z,22.37
2017-06-03T07:59:03.903Z,20.00
2017-06-03T08:01:31.399Z,18.90
2017-06-03T08:03:58.874Z,18.20
2017-06-03T08:06:27.148Z,18.53
2017-06-03T08:08:55.394Z,19.07
2017-06-03T08:11:22.919Z,18.97
2017-06-03T08:13:50.398Z,17.93
2017-06-03T08:16:17.923Z,20.50
2017-06-03T08:18:45.459Z,19.20
2017-06-03T08:21:12.931Z,20.43
2017-06-03T08:23:40.438Z,20.87
2017-06-03T08:26:08.691Z,16.40
2017-06-03T08:28:36.192Z,18.93
2017-06-03T08:31:03.684Z,18.60
2017-06-03T08:33:31.222Z,16.80
2017-06-03T08:35:58.719Z,16.07
2017-06-03T08:38:26.232Z,19.20
2017-06-03T08:40:53.719Z,16.47
2017-06-03T08:43:21.211Z,14.90
2017-06-03T08:45:48.710Z,16.70
2017-06-03T08:48:16.195Z,15.20
2017-06-03T08:50:43.688Z,15.47
2017-06-03T08:53:11.170Z,16.93
2017-06-03T08:55:38.662Z,16.27
2017-06-03T08:58:06.139Z,16.83
2017-06-03T09:00:34.403Z,16.93
2017-06-03T09:03:02.652Z,18.10
2017-06-03T09:05:30.148Z,17.47
2017-06-03T09:07:57.638Z,17.00
2017-06-03T09:10:25.115Z,16.07
2017-06-03T09:12:52.614Z,17.30
2017-06-03T09:15:20.084Z,14.20
2017-06-03T09:17:47.583Z,15.83
2017-06-03T09:20:15.060Z,14.70
2017-06-03T09:22:43.486Z,12.73
2017-06-03T09:25:10.966Z,11.63
2017-06-03T09:27:38.466Z,15.07
2017-06-03T09:30:05.946Z,14.33
2017-06-03T09:32:33.451Z,13.70
2017-06-03T09:35:01.703Z,15.17
2017-06-03T09:37:29.219Z,15.20
2017-06-03T09:39:56.699Z,16.63
2017-06-03T09:42:24.174Z,17.50
2017-06-03T09:44:51.688Z,13.97
2017-06-03T09:47:19.167Z,14.50
2017-06-03T09:49:46.678Z,12.93
2017-06-03T09:52:14.158Z,15.00
2017-06-03T09:54:41.651Z,15.90
2017-06-03T09:57:09.130Z,14.57
2017-06-03T09:59:37.390Z,14.77
2017-06-03T10:02:05.643Z,13.67
2017-06-03T10:04:33.150Z,11.90
2017-06-03T10:07:00.632Z,12.47
2017-06-03T10:09:28.114Z,10.10
2017-06-03T10:11:55.606Z,9.10
2017-06-03T10:14:23.082Z,9.87
2017-06-03T10:16:51.141Z,10.57
2017-06-03T10:19:18.619Z,8.20
2017-06-03T10:21:46.115Z,8.70
2017-06-03T10:24:14.362Z,8.33
2017-06-03T10:26:41.851Z,9.03
2017-06-03T10:29:10.090Z,8.67
2017-06-03T10:31:37.584Z,9.10
2017-06-03T10:34:05.058Z,9.77
2017-06-03T10:36:32.537Z,9.00
2017-06-03T10:39:00.032Z,9.67
2017-06-03T10:41:28.281Z,8.40
2017-06-03T10:43:55.775Z,6.87
2017-06-03T10:46:23.247Z,7.60
2017-06-03T10:48:50.746Z,7.13
2017-06-03T10:51:18.226Z,7.00
2017-06-03T10:53:46.492Z,6.60
2017-06-03T10:56:14.735Z,6.03
2017-06-03T10:58:42.232Z,6.70
2017-06-03T11:01:10.479Z,7.10
2017-06-03T11:03:37.956Z,6.53
2017-06-03T11:06:06.218Z,7.37
2017-06-03T11:08:34.466Z,6.77
2017-06-03T11:11:01.960Z,6.93
2017-06-03T11:13:30.201Z,6.57
2017-06-03T11:15:57.699Z,8.20
2017-06-03T11:18:25.164Z,8.60
2017-06-03T11:20:52.659Z,8.13
2017-06-03T11:23:20.138Z,7.67
2017-06-03T11:25:48.431Z,8.90
2017-06-03T11:28:15.905Z,6.90
2017-06-03T11:30:43.378Z,10.40
2017-06-03T11:33:10.878Z,6.87
2017-06-03T11:35:39.130Z,8.50
2017-06-03T11:38:06.623Z,8.73
2017-06-03T11:40:34.914Z,8.73
2017-06-03T11:43:02.403Z,7.93
2017-06-03T11:45:29.874Z,7.40
2017-06-03T11:47:57.368Z,6.80
2017-06-03T11:50:24.838Z,9.20
2017-06-03T11:52:52.339Z,7.70
2017-06-03T11:55:19.808Z,6.70
2017-06-03T11:57:48.082Z,6.70
2017-06-03T12:00:16.322Z,6.30
2017-06-03T12:02:43.798Z,6.87
2017-06-03T12:05:11.283Z,8.00
2017-06-03T12:07:38.761Z,7.30
2017-06-03T12:10:06.258Z,7.80
2017-06-03T12:12:33.738Z,11.83
2017-06-03T12:15:01.239Z,7.33
2017-06-03T12:17:28.719Z,7.63
2017-06-03T12:19:56.214Z,10.83
2017-06-03T12:22:24.458Z,11.60
2017-06-03T12:24:52.727Z,13.10
2017-06-03T12:27:20.982Z,9.60
2017-06-03T12:29:48.475Z,8.50
2017-06-03T12:32:15.948Z,9.33
2017-06-03T12:34:43.426Z,10.27
2017-06-03T12:37:10.926Z,9.27
2017-06-03T12:39:39.173Z,9.93
2017-06-03T12:42:06.687Z,10.10
2017-06-03T12:44:34.171Z,11.13
2017-06-03T12:47:01.670Z,12.70
2017-06-03T12:49:29.151Z,8.10
2017-06-03T12:51:56.638Z,8.67
2017-06-03T12:54:24.115Z,7.07
2017-06-03T12:56:51.629Z,8.90
2017-06-03T12:59:19.119Z,13.13
2017-06-03T13:01:46.597Z,7.27
2017-06-03T13:04:15.074Z,7.53
2017-06-03T13:06:42.559Z,6.97
2017-06-03T13:09:10.056Z,7.00
2017-06-03T13:11:37.539Z,7.77
2017-06-03T13:14:05.030Z,7.70
2017-06-03T13:16:32.507Z,6.90
2017-06-03T13:19:00.002Z,6.37
2017-06-03T13:21:27.478Z,6.30
2017-06-03T13:23:55.022Z,6.57
2017-06-03T13:26:22.499Z,6.77
2017-06-03T13:28:49.994Z,5.97
2017-06-03T13:31:17.491Z,5.93
2017-06-03T13:33:44.967Z,6.40
2017-06-03T13:36:12.462Z,5.70
2017-06-03T13:38:39.942Z,6.13
2017-06-03T13:41:08.202Z,6.23
2017-06-03T13:43:36.443Z,6.23
2017-06-03T13:46:04.729Z,6.10
2017-06-03T13:48:32.227Z,7.50
2017-06-03T13:51:00.302Z,5.77
2017-06-03T13:53:27.786Z,7.10
2017-06-03T13:55:55.284Z,5.90
2017-06-03T13:58:23.527Z,5.90
2017-06-03T14:00:51.006Z,6.97
2017-06-03T14:03:19.266Z,6.73
2017-06-03T14:05:46.750Z,7.77
2017-06-03T14:08:15.002Z,8.73
2017-06-03T14:10:42.475Z,5.67
2017-06-03T14:13:10.734Z,6.57
2017-06-03T14:15:38.977Z,5.50
2017-06-03T14:18:06.467Z,5.97
2017-06-03T14:20:34.710Z,5.30
2017-06-03T14:23:02.204Z,5.27
2017-06-03T14:25:29.690Z,4.93
2017-06-03T14:27:57.176Z,6.43
2017-06-03T14:30:24.662Z,4.60
2017-06-03T14:32:52.903Z,4.47
2017-06-03T14:35:20.390Z,4.57
2017-06-03T14:37:47.859Z,4.67
2017-06-03T14:40:15.358Z,4.70
2017-06-03T14:42:42.838Z,4.93
2017-06-03T14:45:10.328Z,3.67
2017-06-03T14:47:37.823Z,4.70
2017-06-03T14:50:05.315Z,4.63
2017-06-03T14:52:33.558Z,4.00
2017-06-03T14:55:01.054Z,5.63
2017-06-03T14:57:28.536Z,4.70
2017-06-03T14:59:56.047Z,4.47
2017-06-03T15:02:24.292Z,4.70
2017-06-03T15:04:51.765Z,4.10
2017-06-03T15:07:19.270Z,4.47
2017-06-03T15:09:46.742Z,4.03
2017-06-03T15:12:14.257Z,4.60
2017-06-03T15:14:41.735Z,4.43
2017-06-03T15:17:09.214Z,4.83
2017-06-03T15:19:36.769Z,4.27
2017-06-03T15:22:04.243Z,5.87
2017-06-03T15:24:31.740Z,5.50
2017-06-03T15:26:59.289Z,6.93
2017-06-03T15:29:26.763Z,6.07
2017-06-03T15:31:54.243Z,6.87
2017-06-03T15:34:21.744Z,5.37
2017-06-03T15:36:49.989Z,6.53
2017-06-03T15:39:17.494Z,6.57
2017-06-03T15:41:44.998Z,6.37
2017-06-03T15:44:12.475Z,8.10
2017-06-03T15:46:39.955Z,5.73
2017-06-03T15:49:07.472Z,6.53
2017-06-03T15:51:35.711Z,8.73
2017-06-03T15:54:03.182Z,5.50
2017-06-03T15:56:30.680Z,7.00
2017-06-03T15:58:58.162Z,6.73
2017-06-03T16:01:25.664Z,5.93
2017-06-03T16:03:53.898Z,6.10
2017-06-03T16:06:21.371Z,6.57
2017-06-03T16:08:48.866Z,5.67
2017-06-03T16:11:16.344Z,6.37
2017-06-03T16:13:43.854Z,4.57
2017-06-03T16:16:12.103Z,4.53
2017-06-03T16:18:39.578Z,4.37
2017-06-03T16:21:07.843Z,5.20
2017-06-03T16:23:35.321Z,4.97
2017-06-03T16:26:02.831Z,5.20
2017-06-03T16:28:30.308Z,4.80
2017-06-03T16:30:57.786Z,7.00
2017-06-03T16:33:26.049Z,4.83
2017-06-03T16:35:53.550Z,5.93
2017-06-03T16:38:21.062Z,5.20
2017-06-03T16:40:49.307Z,5.37
2017-06-03T16:43:16.790Z,5.80
2017-06-03T16:45:45.067Z,5.67
2017-06-03T16:48:12.576Z,5.13
2017-06-03T16:50:40.086Z,5.90
2017-06-03T16:53:07.574Z,5.50
2017-06-03T16:55:35.048Z,5.27
2017-06-03T16:58:02.544Z,6.40
2017-06-03T17:00:30.787Z,5.80
2017-06-03T17:02:58.295Z,5.90
2017-06-03T17:05:25.770Z,6.20
2017-06-03T17:07:53.246Z,5.90
2017-06-03T17:10:20.753Z,7.83
2017-06-03T17:12:48.240Z,5.87
2017-06-03T17:15:15.742Z,5.80
2017-06-03T17:17:43.227Z,5.73
2017-06-03T17:20:10.711Z,5.10
2017-06-03T17:22:38.204Z,5.43
2017-06-03T17:25:05.691Z,5.40
2017-06-03T17:27:33.189Z,5.97
2017-06-03T17:30:00.669Z,5.30
2017-06-03T17:32:28.911Z,4.73
2017-06-03T17:34:56.398Z,5.20
2017-06-03T17:37:24.647Z,5.77
2017-06-03T17:39:52.162Z,6.47
2017-06-03T17:42:19.639Z,5.73
2017-06-03T17:44:47.132Z,5.87
2017-06-03T17:47:15.415Z,5.70
2017-06-03T17:49:42.896Z,6.37
2017-06-03T17:52:10.399Z,6.50
2017-06-03T17:54:37.876Z,7.33
2017-06-03T17:57:05.363Z,8.87
2017-06-03T17:59:32.848Z,7.27
2017-06-03T18:02:00.336Z,8.37
2017-06-03T18:04:27.874Z,8.30
2017-06-03T18:06:56.111Z,7.10
2017-06-03T18:09:23.586Z,8.00
2017-06-03T18:11:51.075Z,7.90
2017-06-03T18:14:18.543Z,7.17
2017-06-03T18:16:46.058Z,6.80
2017-06-03T18:19:13.539Z,7.50
2017-06-03T18:21:41.020Z,7.40
2017-06-03T18:24:08.512Z,8.50
2017-06-03T18:26:35.986Z,7.63
2017-06-03T18:29:04.244Z,8.10
2017-06-03T18:31:31.720Z,7.77
2017-06-03T18:33:59.994Z,7.67
2017-06-03T18:36:28.241Z,9.47
2017-06-03T18:38:55.718Z,8.37
2017-06-03T18:41:23.222Z,8.90
2017-06-03T18:43:50.704Z,9.83
2017-06-03T18:46:18.238Z,9.27
2017-06-03T18:48:45.715Z,10.67
2017-06-03T18:51:13.200Z,8.70
2017-06-03T18:53:40.696Z,9.30
2017-06-03T18:56:08.174Z,8.73
2017-06-03T18:58:35.691Z,9.03
2017-06-03T19:01:03.171Z,8.37
2017-06-03T19:03:30.649Z,9.13
2017-06-03T19:05:58.149Z,9.90
2017-06-03T19:08:25.635Z,8.80
2017-06-03T19:10:53.140Z,9.47
2017-06-03T19:13:20.628Z,8.70
2017-06-03T19:15:48.115Z,8.40
2017-06-03T19:18:15.615Z,8.43
2017-06-03T19:20:43.104Z,8.83
2017-06-03T19:23:10.903Z,9.87
2017-06-03T19:25:39.160Z,10.17
2017-06-03T19:28:06.642Z,9.93
2017-06-03T19:30:34.910Z,12.63
2017-06-03T19:33:03.166Z,13.60
2017-06-03T19:35:30.686Z,10.83
2017-06-03T19:37:58.166Z,11.43
2017-06-03T19:40:25.648Z,11.27
2017-06-03T19:42:53.918Z,12.33
2017-06-03T19:45:21.403Z,13.13
2017-06-03T19:47:48.923Z,13.33
2017-06-03T19:50:17.181Z,13.20
2017-06-03T19:52:44.678Z,13.27
2017-06-03T19:55:12.174Z,17.40
2017-06-03T19:57:39.661Z,15.17
2017-06-03T20:00:07.963Z,15.93
2017-06-03T20:02:35.482Z,16.63
2017-06-03T20:05:03.742Z,17.00
2017-06-03T20:07:31.255Z,18.63
2017-06-03T20:09:58.739Z,17.87
2017-06-03T20:12:26.251Z,14.50
2017-06-03T20:14:53.745Z,16.53
2017-06-03T20:17:21.226Z,15.73
2017-06-03T20:19:48.726Z,13.73
2017-06-03T20:22:16.213Z,10.50
2017-06-03T20:24:43.715Z,12.40
2017-06-03T20:27:11.196Z,9.00
2017-06-03T20:29:38.683Z,6.97
2017-06-03T20:32:06.178Z,8.63
2017-06-03T20:34:33.671Z,7.03
2017-06-03T20:37:01.188Z,6.53
2017-06-03T20:39:28.667Z,7.57
2017-06-03T20:41:56.151Z,8.10
2017-06-03T20:44:23.638Z,8.43
2017-06-03T20:46:51.884Z,10.53
2017-06-03T20:49:19.405Z,8.57
2017-06-03T20:51:46.887Z,10.20
2017-06-03T20:54:14.365Z,9.27
2017-06-03T20:56:41.859Z,8.00
2017-06-03T20:59:09.336Z,9.73
2017-06-03T21:01:36.854Z,9.90
2017-06-03T21:04:04.339Z,10.40
2017-06-03T21:06:31.827Z,8.50
2017-06-03T21:08:59.335Z,8.60
2017-06-03T21:11:26.819Z,10.13
2017-06-03T21:13:54.332Z,10.40
2017-06-03T21:16:21.810Z,9.50
2017-06-03T21:18:49.295Z,10.53
2017-06-03T21:21:16.796Z,10.50
2017-06-03T21:23:44.274Z,9.23
2017-06-03T21:26:11.770Z,10.40
2017-06-03T21:28:39.243Z,11.47
2017-06-03T21:31:07.503Z,10.83
2017-06-03T21:33:35.022Z,9.43
2017-06-03T21:36:03.134Z,11.30
2017-06-03T21:38:30.662Z,10.97
2017-06-03T21:40:58.153Z,10.33
2017-06-03T21:43:26.398Z,8.60
2017-06-03T21:45:53.892Z,6.83
2017-06-03T21:48:21.377Z,5.73
2017-06-03T21:50:48.870Z,5.90
2017-06-03T21:53:16.351Z,7.27
2017-06-03T21:55:43.874Z,5.87
2017-06-03T21:58:11.361Z,5.93
2017-06-03T22:00:38.842Z,7.00
2017-06-03T22:03:06.342Z,7.00
2017-06-03T22:05:33.829Z,6.90
2017-06-03T22:08:01.326Z,6.13
2017-06-03T22:10:28.810Z,6.70
2017-06-03T22:12:56.291Z,6.73
2017-06-03T22:15:23.794Z,6.50
2017-06-03T22:17:51.280Z,6.87
2017-06-03T22:20:19.545Z,6.53
2017-06-03T22:22:47.024Z,7.07
2017-06-03T22:25:14.507Z,7.83
2017-06-03T22:27:42.009Z,7.27
2017-06-03T22:30:09.486Z,7.13
2017-06-03T22:32:36.985Z,7.07
2017-06-03T22:35:04.464Z,8.43
2017-06-03T22:37:31.947Z,8.30
2017-06-03T22:39:59.451Z,7.47
2017-06-03T22:42:26.933Z,6.67
2017-06-03T22:44:54.427Z,7.70
2017-06-03T22:47:21.899Z,7.77
2017-06-03T22:49:49.395Z,8.60
2017-06-03T22:52:16.870Z,8.67
2017-06-03T22:54:45.114Z,8.47
2017-06-03T22:57:12.602Z,8.47
2017-06-03T22:59:40.845Z,8.23
2017-06-03T23:02:08.340Z,7.87
2017-06-03T23:04:35.859Z,8.47
2017-06-03T23:07:03.368Z,8.40
2017-06-03T23:09:30.849Z,8.23
2017-06-03T23:11:58.323Z,8.90
2017-06-03T23:14:26.772Z,8.10
2017-06-03T23:16:54.265Z,7.93
2017-06-03T23:19:21.762Z,9.80
2017-06-03T23:21:49.247Z,8.43
2017-06-03T23:24:16.756Z,8.20
2017-06-03T23:26:44.234Z,8.67
2017-06-03T23:29:11.720Z,8.07
2017-06-03T23:31:39.212Z,9.27
2017-06-03T23:34:07.456Z,8.90
2017-06-03T23:36:34.953Z,9.67
2017-06-03T23:39:02.431Z,9.40
2017-06-03T23:41:29.953Z,9.50
2017-06-03T23:43:57.458Z,10.93
2017-06-03T23:46:24.938Z,10.77
2017-06-03T23:48:52.440Z,11.17
2017-06-03T23:51:19.924Z,11.60
2017-06-03T23:53:47.427Z,10.00
2017-06-03T23:56:14.911Z,10.17
2017-06-03T23:58:42.398Z,10.90
